Airfield :
LOGIN :

Register | Disclaimer

   EN    FR    IT 

 










Legend :    VFR   Marginal VFR   IFR   Intensive IFR   Very Intensive IFR
Visi :
Ceiling :
>= 8 km
>= 3000ft
5 to 8 km
1000 to 3000 ft
1500m to 5 km
500 to 1000 ft
800 to 1500m
200 to 500 ft
< 800m
< 200 ft
Symbols :   Thunderstorms  Fog  Heavy snow  Heavy precipitations  Wind > 20 kt
SIGMETs :     Misc.  Thunderstorms  Icing  Turbulence  Mountain Waves  Volcanic Ashes







- Airport Elevation : 325 ft
- IATA code : BES
- Download approach charts


LFRB - Brest

CURRENT METAR :
  • 211700Z AUTO 03009KT 360V060 9999 FEW037/// BKN044/// ///TCU 21/15 Q1015 BECMG SCT010 BKN020

EXPIRED METARs :
  • 211630Z AUTO 02009KT 9999 FEW024/// BKN036/// BKN043/// ///CB 22/16 Q1015 BECMG SCT010 BKN020
  • 211600Z AUTO 01006KT 330V060 9999 FEW023/// BKN036/// BKN042/// ///CB 22/16 Q1015 BECMG SCT010 BKN020
  • 211530Z AUTO 01007KT 340V050 9999 BKN023/// BKN030/// ///CB 21/16 Q1015 BECMG SCT010 BKN020
  • 211500Z AUTO 02007KT 340V040 9999 BKN022 BKN030 BKN040 21/17 Q1015 NOSIG
  • 211430Z AUTO 36008KT 330V050 9999 OVC022 22/17 Q1014 NOSIG

TAF AMD TAF LFRB
Valid from the 21 at 15:00 until the 22 at 18:00 UTC


211551Z 2115/2218 16004KT 9999 SCT010 BKN020
PROB30
TEMPO 2115/2117 4000 SHRA SCT015TCU BKN020
TEMPO 2200/2203 BKN004
PROB30
TEMPO 2203/2206 4000 BR
BECMG 2206/2209 SCT015
ATIS : +33 2 98 32 02 71
No reported NOTAMs for that airfield.



MET'MAP, your aeronautical weather chart ! - Copyright ORBIFLY December 2007 - Disclaimer

ORBIFLY MET'MAP TEAM :

Programming & Development : Alexandra Zaïnal
Concept & Development : Baudouin d'Aumeries
Co-Development & Prog : Marc-Olivier Méhu
Technical & hardware support : Manuel Goepfert

Contact : metmap@orbifly.com




SOURCES & CREDITS :

   NOAA